sensor_id;sensor_type;location;lat;lon;timestamp;temperature;humidity
19968;DHT22;10145;49.152;9.282;2022-07-25T04:02:20;17.50;99.90
19968;DHT22;10145;49.152;9.282;2022-07-25T04:04:46;17.50;99.90
19968;DHT22;10145;49.152;9.282;2022-07-25T04:07:12;17.50;99.90
19968;DHT22;10145;49.152;9.282;2022-07-25T04:09:37;17.50;99.90
19968;DHT22;10145;49.152;9.282;2022-07-25T04:12:03;17.50;99.90
19968;DHT22;10145;49.152;9.282;2022-07-25T04:14:28;17.60;99.90
19968;DHT22;10145;49.152;9.282;2022-07-25T04:16:54;17.60;99.90
19968;DHT22;10145;49.152;9.282;2022-07-25T04:19:19;17.60;99.90
19968;DHT22;10145;49.152;9.282;2022-07-25T04:21:45;17.70;99.90
19968;DHT22;10145;49.152;9.282;2022-07-25T04:24:10;17.70;99.90
19968;DHT22;10145;49.152;9.282;2022-07-25T04:26:36;17.80;99.90
19968;DHT22;10145;49.152;9.282;2022-07-25T04:29:02;17.70;99.90
19968;DHT22;10145;49.152;9.282;2022-07-25T04:31:28;17.70;99.90
19968;DHT22;10145;49.152;9.282;2022-07-25T04:33:53;17.70;99.90
19968;DHT22;10145;49.152;9.282;2022-07-25T04:36:19;17.80;99.90
19968;DHT22;10145;49.152;9.282;2022-07-25T04:38:44;17.70;99.90
19968;DHT22;10145;49.152;9.282;2022-07-25T04:41:10;17.80;99.90
19968;DHT22;10145;49.152;9.282;2022-07-25T04:43:36;17.80;99.90
19968;DHT22;10145;49.152;9.282;2022-07-25T04:46:01;17.80;99.90
19968;DHT22;10145;49.152;9.282;2022-07-25T04:48:27;17.80;99.90
19968;DHT22;10145;49.152;9.282;2022-07-25T04:50:53;17.90;99.90
19968;DHT22;10145;49.152;9.282;2022-07-25T04:53:18;17.90;99.90
19968;DHT22;10145;49.152;9.282;2022-07-25T04:55:44;17.90;99.90
19968;DHT22;10145;49.152;9.282;2022-07-25T04:58:09;18.00;99.90
19968;DHT22;10145;49.152;9.282;2022-07-25T05:00:35;18.00;99.90
19968;DHT22;10145;49.152;9.282;2022-07-25T05:03:01;18.10;99.90
19968;DHT22;10145;49.152;9.282;2022-07-25T05:05:26;18.10;99.90
19968;DHT22;10145;49.152;9.282;2022-07-25T05:07:57;18.20;99.90
19968;DHT22;10145;49.152;9.282;2022-07-25T05:10:23;18.10;99.90
19968;DHT22;10145;49.152;9.282;2022-07-25T05:12:49;18.20;99.90
19968;DHT22;10145;49.152;9.282;2022-07-25T05:15:15;18.30;99.90
19968;DHT22;10145;49.152;9.282;2022-07-25T05:17:40;18.40;99.90
19968;DHT22;10145;49.152;9.282;2022-07-25T05:20:07;18.50;99.90
19968;DHT22;10145;49.152;9.282;2022-07-25T05:22:32;18.60;99.90
19968;DHT22;10145;49.152;9.282;2022-07-25T05:24:58;18.60;99.90
19968;DHT22;10145;49.152;9.282;2022-07-25T05:27:24;18.70;99.90
19968;DHT22;10145;49.152;9.282;2022-07-25T05:29:50;18.80;99.90
19968;DHT22;10145;49.152;9.282;2022-07-25T05:32:15;18.90;99.90
19968;DHT22;10145;49.152;9.282;2022-07-25T05:34:41;19.00;99.90
19968;DHT22;10145;49.152;9.282;2022-07-25T05:37:06;19.10;99.90
19968;DHT22;10145;49.152;9.282;2022-07-25T05:39:32;19.20;99.90
19968;DHT22;10145;49.152;9.282;2022-07-25T05:41:57;19.30;99.90
19968;DHT22;10145;49.152;9.282;2022-07-25T05:44:23;19.40;99.90
19968;DHT22;10145;49.152;9.282;2022-07-25T05:46:48;19.60;99.90
19968;DHT22;10145;49.152;9.282;2022-07-25T05:49:14;19.60;99.90
19968;DHT22;10145;49.152;9.282;2022-07-25T05:51:40;19.70;99.90
19968;DHT22;10145;49.152;9.282;2022-07-25T05:54:05;19.80;99.90
19968;DHT22;10145;49.152;9.282;2022-07-25T05:56:31;19.90;99.90
19968;DHT22;10145;49.152;9.282;2022-07-25T05:58:56;20.00;99.90
19968;DHT22;10145;49.152;9.282;2022-07-25T06:01:22;20.10;99.90
19968;DHT22;10145;49.152;9.282;2022-07-25T06:03:47;20.20;99.90
19968;DHT22;10145;49.152;9.282;2022-07-25T06:06:13;20.30;99.90
19968;DHT22;10145;49.152;9.282;2022-07-25T06:08:39;20.40;99.90
19968;DHT22;10145;49.152;9.282;2022-07-25T06:11:05;20.40;99.90
19968;DHT22;10145;49.152;9.282;2022-07-25T06:13:32;20.60;99.90
19968;DHT22;10145;49.152;9.282;2022-07-25T06:15:58;20.60;99.90
19968;DHT22;10145;49.152;9.282;2022-07-25T06:18:24;20.90;99.90
19968;DHT22;10145;49.152;9.282;2022-07-25T06:20:50;20.90;99.90
19968;DHT22;10145;49.152;9.282;2022-07-25T06:23:16;21.00;99.90
19968;DHT22;10145;49.152;9.282;2022-07-25T06:25:42;21.10;99.90
19968;DHT22;10145;49.152;9.282;2022-07-25T06:28:07;21.20;99.90
19968;DHT22;10145;49.152;9.282;2022-07-25T06:30:34;21.30;99.90
19968;DHT22;10145;49.152;9.282;2022-07-25T06:32:59;21.50;99.90
19968;DHT22;10145;49.152;9.282;2022-07-25T06:35:25;21.70;99.90
19968;DHT22;10145;49.152;9.282;2022-07-25T06:37:50;21.90;99.90
19968;DHT22;10145;49.152;9.282;2022-07-25T06:40:16;22.10;99.90
19968;DHT22;10145;49.152;9.282;2022-07-25T06:42:43;22.20;99.90
19968;DHT22;10145;49.152;9.282;2022-07-25T06:45:10;22.40;99.90
19968;DHT22;10145;49.152;9.282;2022-07-25T06:47:40;22.50;99.90
19968;DHT22;10145;49.152;9.282;2022-07-25T06:50:08;22.60;99.90
19968;DHT22;10145;49.152;9.282;2022-07-25T06:52:34;22.80;99.90
19968;DHT22;10145;49.152;9.282;2022-07-25T06:55:01;22.90;99.90
19968;DHT22;10145;49.152;9.282;2022-07-25T06:57:27;23.10;99.90
19968;DHT22;10145;49.152;9.282;2022-07-25T06:59:52;23.30;99.90
19968;DHT22;10145;49.152;9.282;2022-07-25T07:02:18;23.50;99.90
19968;DHT22;10145;49.152;9.282;2022-07-25T07:04:43;23.70;99.90
19968;DHT22;10145;49.152;9.282;2022-07-25T07:07:09;23.80;99.90
19968;DHT22;10145;49.152;9.282;2022-07-25T07:09:35;24.00;99.90
19968;DHT22;10145;49.152;9.282;2022-07-25T07:12:00;24.10;99.90
19968;DHT22;10145;49.152;9.282;2022-07-25T07:14:26;24.50;99.90
19968;DHT22;10145;49.152;9.282;2022-07-25T07:16:52;24.70;99.90
19968;DHT22;10145;49.152;9.282;2022-07-25T07:19:17;24.90;99.90
19968;DHT22;10145;49.152;9.282;2022-07-25T07:21:43;25.00;99.90
19968;DHT22;10145;49.152;9.282;2022-07-25T07:24:11;25.30;99.90
19968;DHT22;10145;49.152;9.282;2022-07-25T07:26:36;25.40;99.90
19968;DHT22;10145;49.152;9.282;2022-07-25T07:29:02;25.60;99.70
19968;DHT22;10145;49.152;9.282;2022-07-25T07:31:28;25.80;98.10
19968;DHT22;10145;49.152;9.282;2022-07-25T07:33:54;26.10;97.60
19968;DHT22;10145;49.152;9.282;2022-07-25T07:36:20;26.50;95.20
19968;DHT22;10145;49.152;9.282;2022-07-25T07:38:46;26.90;93.80
19968;DHT22;10145;49.152;9.282;2022-07-25T07:41:12;27.10;93.60
19968;DHT22;10145;49.152;9.282;2022-07-25T07:43:38;27.20;92.80
19968;DHT22;10145;49.152;9.282;2022-07-25T07:46:04;27.40;92.60
19968;DHT22;10145;49.152;9.282;2022-07-25T07:48:30;27.60;92.10
19968;DHT22;10145;49.152;9.282;2022-07-25T07:50:56;27.80;91.40
19968;DHT22;10145;49.152;9.282;2022-07-25T07:53:22;28.10;90.60
19968;DHT22;10145;49.152;9.282;2022-07-25T07:56:08;28.40;90.20
19968;DHT22;10145;49.152;9.282;2022-07-25T07:58:34;28.70;88.50
19968;DHT22;10145;49.152;9.282;2022-07-25T08:00:59;28.90;85.50
19968;DHT22;10145;49.152;9.282;2022-07-25T08:03:25;29.10;85.00
19968;DHT22;10145;49.152;9.282;2022-07-25T08:05:51;29.40;84.20
19968;DHT22;10145;49.152;9.282;2022-07-25T08:08:16;29.50;84.30
19968;DHT22;10145;49.152;9.282;2022-07-25T08:10:44;29.60;82.60
19968;DHT22;10145;49.152;9.282;2022-07-25T08:13:22;29.80;81.80
19968;DHT22;10145;49.152;9.282;2022-07-25T08:15:53;30.00;80.60
19968;DHT22;10145;49.152;9.282;2022-07-25T08:18:20;30.10;80.90
19968;DHT22;10145;49.152;9.282;2022-07-25T08:20:46;30.30;80.60
19968;DHT22;10145;49.152;9.282;2022-07-25T08:23:11;30.50;79.10
19968;DHT22;10145;49.152;9.282;2022-07-25T08:25:38;30.60;77.70
19968;DHT22;10145;49.152;9.282;2022-07-25T08:28:04;30.70;78.90
19968;DHT22;10145;49.152;9.282;2022-07-25T08:30:34;30.80;77.70
19968;DHT22;10145;49.152;9.282;2022-07-25T08:33:03;30.90;78.80
19968;DHT22;10145;49.152;9.282;2022-07-25T08:35:30;30.90;77.50
19968;DHT22;10145;49.152;9.282;2022-07-25T08:37:56;31.00;76.70
19968;DHT22;10145;49.152;9.282;2022-07-25T08:40:24;31.20;76.20
19968;DHT22;10145;49.152;9.282;2022-07-25T08:42:50;31.40;75.70
19968;DHT22;10145;49.152;9.282;2022-07-25T08:45:17;31.30;73.20
19968;DHT22;10145;49.152;9.282;2022-07-25T08:47:48;31.60;72.10
19968;DHT22;10145;49.152;9.282;2022-07-25T08:50:17;31.60;71.50
19968;DHT22;10145;49.152;9.282;2022-07-25T08:52:44;31.60;68.70
19968;DHT22;10145;49.152;9.282;2022-07-25T08:55:15;31.60;68.90
19968;DHT22;10145;49.152;9.282;2022-07-25T08:57:42;31.90;69.10
19968;DHT22;10145;49.152;9.282;2022-07-25T09:00:10;32.20;68.80
19968;DHT22;10145;49.152;9.282;2022-07-25T09:02:38;32.00;68.90
19968;DHT22;10145;49.152;9.282;2022-07-25T09:05:04;31.90;68.80
19968;DHT22;10145;49.152;9.282;2022-07-25T09:07:37;31.90;69.30
19968;DHT22;10145;49.152;9.282;2022-07-25T09:10:23;32.00;69.70
19968;DHT22;10145;49.152;9.282;2022-07-25T09:15:34;32.20;68.30
19968;DHT22;10145;49.152;9.282;2022-07-25T09:18:03;32.30;68.20
19968;DHT22;10145;49.152;9.282;2022-07-25T09:20:49;32.30;68.50
19968;DHT22;10145;49.152;9.282;2022-07-25T09:23:33;32.70;68.30
19968;DHT22;10145;49.152;9.282;2022-07-25T09:26:08;32.70;68.20
19968;DHT22;10145;49.152;9.282;2022-07-25T09:28:48;33.00;68.00
19968;DHT22;10145;49.152;9.282;2022-07-25T09:31:15;32.90;67.20
19968;DHT22;10145;49.152;9.282;2022-07-25T09:33:49;32.80;68.40
19968;DHT22;10145;49.152;9.282;2022-07-25T09:36:16;33.00;66.90
19968;DHT22;10145;49.152;9.282;2022-07-25T09:38:52;33.20;66.70
19968;DHT22;10145;49.152;9.282;2022-07-25T09:41:17;33.20;66.80
19968;DHT22;10145;49.152;9.282;2022-07-25T09:43:43;33.30;65.70
19968;DHT22;10145;49.152;9.282;2022-07-25T09:46:10;33.30;66.10
19968;DHT22;10145;49.152;9.282;2022-07-25T09:48:38;33.40;66.10
19968;DHT22;10145;49.152;9.282;2022-07-25T09:51:04;33.50;65.70
19968;DHT22;10145;49.152;9.282;2022-07-25T09:53:30;33.50;64.70
19968;DHT22;10145;49.152;9.282;2022-07-25T09:55:56;33.70;63.70
19968;DHT22;10145;49.152;9.282;2022-07-25T09:58:23;33.80;64.10
19968;DHT22;10145;49.152;9.282;2022-07-25T10:00:48;33.80;63.50
19968;DHT22;10145;49.152;9.282;2022-07-25T10:03:31;34.00;62.60
19968;DHT22;10145;49.152;9.282;2022-07-25T10:08:37;33.90;59.40
19968;DHT22;10145;49.152;9.282;2022-07-25T10:11:04;33.90;60.60
19968;DHT22;10145;49.152;9.282;2022-07-25T10:13:33;34.30;60.40
19968;DHT22;10145;49.152;9.282;2022-07-25T10:15:59;34.60;59.60
19968;DHT22;10145;49.152;9.282;2022-07-25T10:18:27;34.70;59.20
19968;DHT22;10145;49.152;9.282;2022-07-25T10:21:09;34.60;58.20
19968;DHT22;10145;49.152;9.282;2022-07-25T10:23:36;34.40;59.20
19968;DHT22;10145;49.152;9.282;2022-07-25T10:26:11;34.40;58.70
19968;DHT22;10145;49.152;9.282;2022-07-25T10:28:47;34.50;58.80
19968;DHT22;10145;49.152;9.282;2022-07-25T10:33:47;34.60;58.70
19968;DHT22;10145;49.152;9.282;2022-07-25T10:36:12;34.50;58.20
19968;DHT22;10145;49.152;9.282;2022-07-25T10:38:38;34.60;57.90
19968;DHT22;10145;49.152;9.282;2022-07-25T10:41:07;34.70;57.80
19968;DHT22;10145;49.152;9.282;2022-07-25T10:43:37;34.60;58.90
19968;DHT22;10145;49.152;9.282;2022-07-25T10:46:10;35.00;57.10
19968;DHT22;10145;49.152;9.282;2022-07-25T10:48:37;35.00;56.50
19968;DHT22;10145;49.152;9.282;2022-07-25T10:51:07;35.30;56.70
19968;DHT22;10145;49.152;9.282;2022-07-25T10:56:05;35.40;55.60
19968;DHT22;10145;49.152;9.282;2022-07-25T10:58:51;35.50;55.90
19968;DHT22;10145;49.152;9.282;2022-07-25T11:03:50;36.00;54.50
19968;DHT22;10145;49.152;9.282;2022-07-25T11:06:27;36.10;53.10
19968;DHT22;10145;49.152;9.282;2022-07-25T11:08:53;36.40;52.70
19968;DHT22;10145;49.152;9.282;2022-07-25T11:11:35;36.10;50.90
19968;DHT22;10145;49.152;9.282;2022-07-25T11:14:01;36.50;51.60
19968;DHT22;10145;49.152;9.282;2022-07-25T11:16:27;36.70;51.50
19968;DHT22;10145;49.152;9.282;2022-07-25T11:18:53;36.80;50.20
19968;DHT22;10145;49.152;9.282;2022-07-25T11:21:19;36.90;50.20
19968;DHT22;10145;49.152;9.282;2022-07-25T11:23:52;37.30;49.40
19968;DHT22;10145;49.152;9.282;2022-07-25T11:26:17;37.50;50.10
19968;DHT22;10145;49.152;9.282;2022-07-25T11:28:46;38.20;48.90
19968;DHT22;10145;49.152;9.282;2022-07-25T11:31:14;38.20;47.90
19968;DHT22;10145;49.152;9.282;2022-07-25T11:33:45;38.10;49.70
19968;DHT22;10145;49.152;9.282;2022-07-25T11:36:11;37.80;49.30
19968;DHT22;10145;49.152;9.282;2022-07-25T11:38:38;37.70;50.30
19968;DHT22;10145;49.152;9.282;2022-07-25T11:41:04;37.60;50.30
19968;DHT22;10145;49.152;9.282;2022-07-25T11:43:30;38.20;48.50
19968;DHT22;10145;49.152;9.282;2022-07-25T11:46:00;38.40;48.60
19968;DHT22;10145;49.152;9.282;2022-07-25T11:48:35;38.40;47.10
19968;DHT22;10145;49.152;9.282;2022-07-25T11:51:12;37.50;48.00
19968;DHT22;10145;49.152;9.282;2022-07-25T11:53:49;37.10;48.50
19968;DHT22;10145;49.152;9.282;2022-07-25T11:56:20;36.90;48.50
19968;DHT22;10145;49.152;9.282;2022-07-25T11:59:04;36.80;49.00
19968;DHT22;10145;49.152;9.282;2022-07-25T12:01:37;36.20;49.90
19968;DHT22;10145;49.152;9.282;2022-07-25T12:04:10;36.20;51.00
19968;DHT22;10145;49.152;9.282;2022-07-25T12:06:36;36.50;49.70
19968;DHT22;10145;49.152;9.282;2022-07-25T12:11:38;37.40;48.70
19968;DHT22;10145;49.152;9.282;2022-07-25T12:14:04;38.10;47.80
19968;DHT22;10145;49.152;9.282;2022-07-25T12:16:31;38.10;47.00
19968;DHT22;10145;49.152;9.282;2022-07-25T12:18:58;37.70;47.70
19968;DHT22;10145;49.152;9.282;2022-07-25T12:21:24;36.80;48.20
19968;DHT22;10145;49.152;9.282;2022-07-25T12:23:49;36.80;48.60
19968;DHT22;10145;49.152;9.282;2022-07-25T12:26:15;36.80;48.50
19968;DHT22;10145;49.152;9.282;2022-07-25T12:28:40;36.80;50.10
19968;DHT22;10145;49.152;9.282;2022-07-25T12:31:06;37.20;48.50
19968;DHT22;10145;49.152;9.282;2022-07-25T12:33:32;37.10;48.50
19968;DHT22;10145;49.152;9.282;2022-07-25T12:35:59;37.60;48.50
19968;DHT22;10145;49.152;9.282;2022-07-25T12:38:24;38.10;48.10
19968;DHT22;10145;49.152;9.282;2022-07-25T12:40:50;38.60;46.20
19968;DHT22;10145;49.152;9.282;2022-07-25T12:43:16;38.70;45.30
19968;DHT22;10145;49.152;9.282;2022-07-25T12:45:42;38.90;45.70
19968;DHT22;10145;49.152;9.282;2022-07-25T12:48:08;38.90;45.50
19968;DHT22;10145;49.152;9.282;2022-07-25T12:50:34;38.70;44.70
19968;DHT22;10145;49.152;9.282;2022-07-25T12:53:00;38.20;45.20
19968;DHT22;10145;49.152;9.282;2022-07-25T12:55:26;37.70;46.70
19968;DHT22;10145;49.152;9.282;2022-07-25T12:57:52;37.10;47.10
19968;DHT22;10145;49.152;9.282;2022-07-25T13:00:20;37.40;47.60
19968;DHT22;10145;49.152;9.282;2022-07-25T13:02:47;38.10;46.40
19968;DHT22;10145;49.152;9.282;2022-07-25T13:05:12;37.90;46.20
19968;DHT22;10145;49.152;9.282;2022-07-25T13:07:38;37.80;46.40
19968;DHT22;10145;49.152;9.282;2022-07-25T13:10:05;37.70;47.00
19968;DHT22;10145;49.152;9.282;2022-07-25T13:12:30;37.40;47.50
19968;DHT22;10145;49.152;9.282;2022-07-25T13:14:56;37.30;47.70
19968;DHT22;10145;49.152;9.282;2022-07-25T13:17:25;37.40;47.20
19968;DHT22;10145;49.152;9.282;2022-07-25T13:19:51;38.00;48.00
19968;DHT22;10145;49.152;9.282;2022-07-25T13:22:23;37.80;46.20
19968;DHT22;10145;49.152;9.282;2022-07-25T13:24:52;37.00;49.00
19968;DHT22;10145;49.152;9.282;2022-07-25T13:27:20;37.00;48.50
19968;DHT22;10145;49.152;9.282;2022-07-25T13:29:46;36.90;50.40
19968;DHT22;10145;49.152;9.282;2022-07-25T13:32:13;37.00;48.30
19968;DHT22;10145;49.152;9.282;2022-07-25T13:34:38;37.10;49.10
19968;DHT22;10145;49.152;9.282;2022-07-25T13:37:04;36.70;48.50
19968;DHT22;10145;49.152;9.282;2022-07-25T13:39:33;36.40;49.60
19968;DHT22;10145;49.152;9.282;2022-07-25T13:41:59;36.10;50.50
19968;DHT22;10145;49.152;9.282;2022-07-25T13:44:25;35.70;51.10
19968;DHT22;10145;49.152;9.282;2022-07-25T13:46:53;35.70;50.40
19968;DHT22;10145;49.152;9.282;2022-07-25T13:49:19;35.90;50.60
19968;DHT22;10145;49.152;9.282;2022-07-25T13:51:44;36.90;50.70
19968;DHT22;10145;49.152;9.282;2022-07-25T13:54:11;37.70;49.50
19968;DHT22;10145;49.152;9.282;2022-07-25T13:56:36;38.80;47.70
19968;DHT22;10145;49.152;9.282;2022-07-25T13:59:02;39.50;46.40
19968;DHT22;10145;49.152;9.282;2022-07-25T14:01:28;39.50;45.90
19968;DHT22;10145;49.152;9.282;2022-07-25T14:03:53;39.00;47.30
19968;DHT22;10145;49.152;9.282;2022-07-25T14:06:19;38.10;47.30
19968;DHT22;10145;49.152;9.282;2022-07-25T14:08:45;36.70;49.80
19968;DHT22;10145;49.152;9.282;2022-07-25T14:11:13;35.80;50.70
19968;DHT22;10145;49.152;9.282;2022-07-25T14:13:39;35.30;52.10
19968;DHT22;10145;49.152;9.282;2022-07-25T14:16:05;34.90;52.90
19968;DHT22;10145;49.152;9.282;2022-07-25T14:18:30;34.60;54.70
19968;DHT22;10145;49.152;9.282;2022-07-25T14:20:57;34.30;53.70
19968;DHT22;10145;49.152;9.282;2022-07-25T14:23:23;34.10;54.50
19968;DHT22;10145;49.152;9.282;2022-07-25T14:25:49;34.10;54.90
19968;DHT22;10145;49.152;9.282;2022-07-25T14:28:15;34.30;55.30
19968;DHT22;10145;49.152;9.282;2022-07-25T14:30:40;34.70;54.20
19968;DHT22;10145;49.152;9.282;2022-07-25T14:33:06;35.10;53.90
19968;DHT22;10145;49.152;9.282;2022-07-25T14:35:31;35.80;53.20
19968;DHT22;10145;49.152;9.282;2022-07-25T14:38:01;36.60;52.20
19968;DHT22;10145;49.152;9.282;2022-07-25T14:40:26;37.00;50.80
19968;DHT22;10145;49.152;9.282;2022-07-25T14:42:52;38.30;49.60
19968;DHT22;10145;49.152;9.282;2022-07-25T14:45:17;39.30;47.80
19968;DHT22;10145;49.152;9.282;2022-07-25T14:47:43;38.90;48.10
19968;DHT22;10145;49.152;9.282;2022-07-25T14:50:09;39.20;49.10
19968;DHT22;10145;49.152;9.282;2022-07-25T14:52:35;39.40;47.30
19968;DHT22;10145;49.152;9.282;2022-07-25T14:55:01;38.30;47.50
19968;DHT22;10145;49.152;9.282;2022-07-25T14:57:27;37.30;49.90
19968;DHT22;10145;49.152;9.282;2022-07-25T14:59:53;36.20;51.10
19968;DHT22;10145;49.152;9.282;2022-07-25T15:02:18;35.30;51.50
19968;DHT22;10145;49.152;9.282;2022-07-25T15:04:44;34.70;52.90
19968;DHT22;10145;49.152;9.282;2022-07-25T15:07:09;34.00;53.50
19968;DHT22;10145;49.152;9.282;2022-07-25T15:09:38;33.50;54.40
19968;DHT22;10145;49.152;9.282;2022-07-25T15:12:04;33.20;55.30
19968;DHT22;10145;49.152;9.282;2022-07-25T15:14:29;33.00;55.80
19968;DHT22;10145;49.152;9.282;2022-07-25T15:16:55;32.80;56.30
19968;DHT22;10145;49.152;9.282;2022-07-25T15:19:21;32.70;57.00
19968;DHT22;10145;49.152;9.282;2022-07-25T15:21:46;32.40;59.00
19968;DHT22;10145;49.152;9.282;2022-07-25T15:24:12;32.20;63.40
19968;DHT22;10145;49.152;9.282;2022-07-25T15:26:38;29.70;87.30
19968;DHT22;10145;49.152;9.282;2022-07-25T15:29:08;27.00;99.90
19968;DHT22;10145;49.152;9.282;2022-07-25T15:31:37;25.30;99.90
19968;DHT22;10145;49.152;9.282;2022-07-25T15:34:02;24.50;99.90
19968;DHT22;10145;49.152;9.282;2022-07-25T15:36:30;24.10;99.90
19968;DHT22;10145;49.152;9.282;2022-07-25T15:38:56;24.00;99.90
19968;DHT22;10145;49.152;9.282;2022-07-25T15:41:22;24.20;99.90
19968;DHT22;10145;49.152;9.282;2022-07-25T15:43:47;24.30;99.90
19968;DHT22;10145;49.152;9.282;2022-07-25T15:46:13;25.40;99.90
19968;DHT22;10145;49.152;9.282;2022-07-25T15:48:39;27.50;99.90
19968;DHT22;10145;49.152;9.282;2022-07-25T15:51:05;29.60;99.90
19968;DHT22;10145;49.152;9.282;2022-07-25T15:53:30;31.30;99.90
19968;DHT22;10145;49.152;9.282;2022-07-25T15:55:56;32.40;99.90
19968;DHT22;10145;49.152;9.282;2022-07-25T15:58:21;33.40;99.90
19968;DHT22;10145;49.152;9.282;2022-07-25T16:00:47;33.80;99.90
19968;DHT22;10145;49.152;9.282;2022-07-25T16:03:13;33.80;99.90
19968;DHT22;10145;49.152;9.282;2022-07-25T16:05:40;33.70;99.90
19968;DHT22;10145;49.152;9.282;2022-07-25T16:08:06;34.10;99.90
19968;DHT22;10145;49.152;9.282;2022-07-25T16:10:36;33.90;99.90
19968;DHT22;10145;49.152;9.282;2022-07-25T16:13:02;33.60;99.90
19968;DHT22;10145;49.152;9.282;2022-07-25T16:15:28;34.60;99.60
19968;DHT22;10145;49.152;9.282;2022-07-25T16:17:54;35.30;96.90
19968;DHT22;10145;49.152;9.282;2022-07-25T16:20:21;36.60;92.10
19968;DHT22;10145;49.152;9.282;2022-07-25T16:22:47;37.80;90.30
19968;DHT22;10145;49.152;9.282;2022-07-25T16:25:13;38.30;79.70
19968;DHT22;10145;49.152;9.282;2022-07-25T16:27:39;38.10;82.30
19968;DHT22;10145;49.152;9.282;2022-07-25T16:30:05;38.20;83.40
19968;DHT22;10145;49.152;9.282;2022-07-25T16:32:31;37.70;86.90
19968;DHT22;10145;49.152;9.282;2022-07-25T16:34:56;37.30;84.60
19968;DHT22;10145;49.152;9.282;2022-07-25T16:37:22;36.20;86.90
19968;DHT22;10145;49.152;9.282;2022-07-25T16:39:48;35.80;84.40
19968;DHT22;10145;49.152;9.282;2022-07-25T16:42:14;35.30;85.90
19968;DHT22;10145;49.152;9.282;2022-07-25T16:44:39;34.90;86.50
19968;DHT22;10145;49.152;9.282;2022-07-25T16:47:06;34.10;85.30
19968;DHT22;10145;49.152;9.282;2022-07-25T16:49:31;33.60;78.90
19968;DHT22;10145;49.152;9.282;2022-07-25T16:51:57;33.10;76.50
19968;DHT22;10145;49.152;9.282;2022-07-25T16:54:22;32.80;77.10
19968;DHT22;10145;49.152;9.282;2022-07-25T16:56:48;32.70;77.30
19968;DHT22;10145;49.152;9.282;2022-07-25T16:59:13;32.50;82.90
19968;DHT22;10145;49.152;9.282;2022-07-25T17:01:40;32.30;84.50
19968;DHT22;10145;49.152;9.282;2022-07-25T17:04:06;32.40;78.40
19968;DHT22;10145;49.152;9.282;2022-07-25T17:06:32;32.30;75.90
19968;DHT22;10145;49.152;9.282;2022-07-25T17:08:57;32.20;74.50
19968;DHT22;10145;49.152;9.282;2022-07-25T17:11:23;32.20;74.70
19968;DHT22;10145;49.152;9.282;2022-07-25T17:13:49;32.10;73.90
19968;DHT22;10145;49.152;9.282;2022-07-25T17:16:14;31.90;75.00
19968;DHT22;10145;49.152;9.282;2022-07-25T17:18:40;31.90;74.20
19968;DHT22;10145;49.152;9.282;2022-07-25T17:21:06;31.70;75.30
19968;DHT22;10145;49.152;9.282;2022-07-25T17:23:32;31.50;74.60
19968;DHT22;10145;49.152;9.282;2022-07-25T17:25:57;31.40;75.50
19968;DHT22;10145;49.152;9.282;2022-07-25T17:28:23;31.30;77.30
19968;DHT22;10145;49.152;9.282;2022-07-25T17:30:49;31.30;77.80
19968;DHT22;10145;49.152;9.282;2022-07-25T17:33:14;31.10;76.90
19968;DHT22;10145;49.152;9.282;2022-07-25T17:35:40;30.90;76.80
19968;DHT22;10145;49.152;9.282;2022-07-25T17:38:06;30.90;78.70
19968;DHT22;10145;49.152;9.282;2022-07-25T17:40:32;30.90;79.30
19968;DHT22;10145;49.152;9.282;2022-07-25T17:42:58;30.80;78.50
19968;DHT22;10145;49.152;9.282;2022-07-25T17:45:24;30.70;80.70
19968;DHT22;10145;49.152;9.282;2022-07-25T17:47:50;30.70;78.20
19968;DHT22;10145;49.152;9.282;2022-07-25T17:50:17;30.50;79.30
19968;DHT22;10145;49.152;9.282;2022-07-25T17:52:44;30.40;79.60
19968;DHT22;10145;49.152;9.282;2022-07-25T17:55:10;30.40;80.60
19968;DHT22;10145;49.152;9.282;2022-07-25T17:57:39;30.30;79.90
19968;DHT22;10145;49.152;9.282;2022-07-25T18:00:06;30.20;77.00
19968;DHT22;10145;49.152;9.282;2022-07-25T18:02:33;30.10;73.50
19968;DHT22;10145;49.152;9.282;2022-07-25T18:04:58;30.00;72.10
19968;DHT22;10145;49.152;9.282;2022-07-25T18:07:24;29.90;72.10
19968;DHT22;10145;49.152;9.282;2022-07-25T18:09:51;29.70;71.60
19968;DHT22;10145;49.152;9.282;2022-07-25T18:12:17;29.60;72.60
19968;DHT22;10145;49.152;9.282;2022-07-25T18:14:43;29.50;71.10
19968;DHT22;10145;49.152;9.282;2022-07-25T18:17:08;29.40;71.30
19968;DHT22;10145;49.152;9.282;2022-07-25T18:19:34;29.20;71.80
19968;DHT22;10145;49.152;9.282;2022-07-25T18:22:00;29.10;72.00
19968;DHT22;10145;49.152;9.282;2022-07-25T18:24:26;29.00;72.20
19968;DHT22;10145;49.152;9.282;2022-07-25T18:26:51;28.80;72.20
19968;DHT22;10145;49.152;9.282;2022-07-25T18:29:17;28.70;72.80
19968;DHT22;10145;49.152;9.282;2022-07-25T18:31:42;28.60;73.80
19968;DHT22;10145;49.152;9.282;2022-07-25T18:34:08;28.40;72.90
19968;DHT22;10145;49.152;9.282;2022-07-25T18:36:33;28.30;73.90
19968;DHT22;10145;49.152;9.282;2022-07-25T18:38:59;28.10;73.90
19968;DHT22;10145;49.152;9.282;2022-07-25T18:41:25;28.00;74.60
19968;DHT22;10145;49.152;9.282;2022-07-25T18:43:51;27.90;73.50
19968;DHT22;10145;49.152;9.282;2022-07-25T18:46:17;27.80;73.20
19968;DHT22;10145;49.152;9.282;2022-07-25T18:48:43;27.70;74.60
19968;DHT22;10145;49.152;9.282;2022-07-25T18:51:10;27.60;73.30
19968;DHT22;10145;49.152;9.282;2022-07-25T18:53:36;27.40;74.20
19968;DHT22;10145;49.152;9.282;2022-07-25T18:56:03;27.30;74.30
19968;DHT22;10145;49.152;9.282;2022-07-25T18:58:28;27.20;74.50
19968;DHT22;10145;49.152;9.282;2022-07-25T19:00:54;27.20;74.80
19968;DHT22;10145;49.152;9.282;2022-07-25T19:03:21;27.10;74.70
19968;DHT22;10145;49.152;9.282;2022-07-25T19:05:47;27.00;74.90
19968;DHT22;10145;49.152;9.282;2022-07-25T19:08:13;26.90;75.00
19968;DHT22;10145;49.152;9.282;2022-07-25T19:10:39;26.90;75.40
19968;DHT22;10145;49.152;9.282;2022-07-25T19:13:07;26.70;75.40
19968;DHT22;10145;49.152;9.282;2022-07-25T19:15:33;26.70;74.70
19968;DHT22;10145;49.152;9.282;2022-07-25T19:18:01;26.60;74.30
19968;DHT22;10145;49.152;9.282;2022-07-25T19:20:27;26.60;74.80
19968;DHT22;10145;49.152;9.282;2022-07-25T19:22:53;26.50;74.20
19968;DHT22;10145;49.152;9.282;2022-07-25T19:25:18;26.40;74.20
19968;DHT22;10145;49.152;9.282;2022-07-25T19:27:44;26.40;73.80
19968;DHT22;10145;49.152;9.282;2022-07-25T19:30:10;26.30;73.60
19968;DHT22;10145;49.152;9.282;2022-07-25T19:32:36;26.30;74.90
19968;DHT22;10145;49.152;9.282;2022-07-25T19:35:03;26.00;73.60
19968;DHT22;10145;49.152;9.282;2022-07-25T19:37:28;26.10;73.60
19968;DHT22;10145;49.152;9.282;2022-07-25T19:39:54;26.10;74.30
19968;DHT22;10145;49.152;9.282;2022-07-25T19:42:20;26.10;75.00
19968;DHT22;10145;49.152;9.282;2022-07-25T19:44:46;26.00;74.50